createdAt,value
2018-12-03T00:01:29.117Z,63.93
2018-12-03T00:06:32.471Z,63.29
2018-12-03T00:11:36.295Z,63.62
2018-12-03T00:16:39.647Z,63.84
2018-12-03T00:21:43.026Z,63.65
2018-12-03T00:26:46.410Z,64.09
2018-12-03T00:31:49.783Z,63.98
2018-12-03T00:36:53.129Z,64.27
2018-12-03T00:41:56.499Z,64.01
2018-12-03T00:46:59.835Z,63.68
2018-12-03T00:58:38.877Z,64.36
2018-12-03T01:03:42.243Z,64.38
2018-12-03T01:08:45.630Z,64.26
2018-12-03T01:13:48.982Z,64.45
2018-12-03T01:18:52.362Z,64.34
2018-12-03T01:23:55.805Z,64.04
2018-12-03T01:28:59.170Z,63.76
2018-12-03T01:34:02.542Z,64.56
2018-12-03T01:39:08.602Z,64.02
2018-12-03T01:44:11.961Z,64.53
2018-12-03T01:49:15.280Z,64.57
2018-12-03T01:54:18.643Z,64.36
2018-12-03T01:59:21.984Z,64.89
2018-12-03T02:04:25.415Z,64.87
2018-12-03T02:09:28.746Z,64.69
2018-12-03T02:14:32.123Z,64.63
2018-12-03T02:19:35.475Z,64.88
2018-12-03T02:24:38.847Z,65.07
2018-12-03T02:29:42.216Z,65.38
2018-12-03T02:34:45.621Z,65.50
2018-12-03T02:39:49.011Z,65.57
2018-12-03T02:44:52.339Z,65.52
2018-12-03T02:49:55.662Z,65.44
2018-12-03T02:54:59.036Z,65.92
2018-12-03T03:00:02.450Z,65.90
2018-12-03T03:05:08.064Z,65.78
2018-12-03T03:10:12.554Z,65.94
2018-12-03T03:15:16.069Z,66.26
2018-12-03T03:20:19.395Z,66.48
2018-12-03T03:25:22.751Z,66.38
2018-12-03T03:30:26.131Z,66.64
2018-12-03T03:35:29.477Z,66.07
2018-12-03T03:40:32.845Z,66.92
2018-12-03T03:45:36.229Z,66.56
2018-12-03T03:50:39.560Z,66.54
2018-12-03T03:55:42.894Z,66.55
2018-12-03T04:00:46.194Z,66.65
2018-12-03T04:05:49.537Z,66.80
2018-12-03T04:10:52.883Z,66.57
2018-12-03T04:15:56.222Z,67.26
2018-12-03T04:20:59.571Z,66.66
2018-12-03T04:26:02.885Z,66.59
2018-12-03T04:31:06.218Z,66.98
2018-12-03T04:36:09.576Z,67.01
2018-12-03T04:41:12.903Z,67.17
2018-12-03T04:46:16.216Z,66.87
2018-12-03T04:51:19.574Z,66.47
2018-12-03T04:56:22.942Z,66.77
2018-12-03T05:01:26.318Z,67.26
2018-12-03T05:06:29.753Z,67.01
2018-12-03T05:11:33.137Z,66.88
2018-12-03T05:16:36.434Z,66.82
2018-12-03T05:21:39.769Z,67.26
2018-12-03T05:26:43.106Z,66.82
2018-12-03T05:31:46.463Z,66.79
2018-12-03T05:36:49.846Z,67.07
2018-12-03T05:41:53.175Z,66.90
2018-12-03T05:46:56.514Z,67.10
2018-12-03T05:51:59.838Z,66.78
2018-12-03T05:57:03.218Z,67.17
2018-12-03T06:02:06.667Z,67.19
2018-12-03T06:07:09.984Z,66.66
2018-12-03T06:12:13.306Z,66.94
2018-12-03T06:17:16.684Z,66.77
2018-12-03T06:22:19.999Z,67.27
2018-12-03T06:27:23.314Z,67.30
2018-12-03T06:32:26.628Z,66.84
2018-12-03T06:37:29.983Z,66.71
2018-12-03T06:42:33.353Z,66.69
2018-12-03T06:47:36.810Z,66.72
2018-12-03T06:52:40.141Z,67.01
2018-12-03T06:57:43.502Z,66.74
2018-12-03T07:02:46.890Z,66.98
2018-12-03T07:07:51.690Z,66.76
2018-12-03T07:12:56.680Z,67.04
2018-12-03T07:18:00.032Z,66.61
2018-12-03T07:23:03.392Z,67.04
2018-12-03T07:28:06.981Z,67.12
2018-12-03T07:33:10.280Z,62.86
2018-12-03T07:38:13.738Z,66.89
2018-12-03T07:43:17.054Z,68.30
2018-12-03T07:48:20.380Z,67.83
2018-12-03T07:53:23.694Z,67.83
2018-12-03T07:58:27.093Z,67.97
2018-12-03T08:03:30.421Z,68.88
2018-12-03T08:08:33.730Z,68.85
2018-12-03T08:13:37.081Z,69.05
2018-12-03T08:18:40.398Z,69.24
2018-12-03T08:23:49.731Z,65.06
2018-12-03T08:28:53.050Z,63.94
2018-12-03T08:33:56.374Z,63.26
2018-12-03T08:38:59.754Z,62.85
2018-12-03T08:44:03.067Z,62.39
2018-12-03T08:49:07.543Z,62.60
2018-12-03T08:54:10.842Z,62.27
2018-12-03T08:59:14.240Z,62.71
2018-12-03T09:04:19.108Z,62.92
2018-12-03T09:09:22.440Z,62.87
2018-12-03T09:14:30.220Z,63.28
2018-12-03T09:19:33.567Z,64.00
2018-12-03T09:24:36.888Z,64.22
2018-12-03T09:29:40.255Z,63.59
2018-12-03T09:34:43.576Z,63.49
2018-12-03T09:39:49.220Z,63.67
2018-12-03T09:44:53.355Z,64.58
2018-12-03T09:49:56.715Z,64.91
2018-12-03T09:55:00.352Z,65.61
2018-12-03T10:00:04.050Z,66.31
2018-12-03T10:05:07.850Z,65.71
2018-12-03T10:10:14.378Z,66.21
2018-12-03T10:15:17.746Z,65.74
2018-12-03T10:20:21.110Z,65.38
2018-12-03T10:25:24.505Z,65.55
2018-12-03T10:30:28.756Z,65.20
2018-12-03T10:35:33.623Z,64.86
2018-12-03T10:40:44.993Z,64.84
2018-12-03T10:45:48.380Z,64.86
2018-12-03T10:50:51.715Z,64.89
2018-12-03T10:55:55.073Z,65.03
2018-12-03T11:01:05.720Z,64.96
2018-12-03T11:06:14.345Z,65.08
2018-12-03T11:11:17.736Z,65.17
2018-12-03T11:16:30.042Z,65.18
2018-12-03T11:21:33.379Z,65.38
2018-12-03T11:26:39.933Z,65.32
2018-12-03T11:31:43.338Z,64.52
2018-12-03T11:36:48.823Z,64.64
2018-12-03T11:41:56.792Z,65.68
2018-12-03T11:47:00.120Z,64.91
2018-12-03T11:52:03.438Z,65.38
2018-12-03T11:57:08.000Z,65.21
2018-12-03T12:02:11.344Z,65.44
2018-12-03T12:07:14.683Z,65.00
2018-12-03T12:12:18.003Z,65.07
2018-12-03T12:17:21.342Z,65.20
2018-12-03T12:22:24.676Z,65.17
2018-12-03T12:27:28.030Z,64.35
2018-12-03T12:32:31.351Z,64.20
2018-12-03T12:37:34.687Z,65.25
2018-12-03T12:42:38.031Z,64.95
2018-12-03T12:47:41.351Z,64.61
2018-12-03T12:52:44.713Z,64.71
2018-12-03T12:57:48.039Z,64.33
2018-12-03T13:02:52.591Z,64.88
2018-12-03T13:07:56.010Z,64.81
2018-12-03T13:12:59.330Z,64.70
2018-12-03T13:18:02.661Z,64.96
2018-12-03T13:23:06.552Z,65.00
2018-12-03T13:28:09.921Z,64.77
2018-12-03T13:33:13.274Z,64.83
2018-12-03T13:38:16.696Z,65.25
2018-12-03T13:43:20.023Z,65.06
2018-12-03T13:48:23.369Z,65.46
2018-12-03T13:53:26.703Z,64.92
2018-12-03T13:58:30.023Z,64.71
2018-12-03T14:03:35.170Z,65.10
2018-12-03T14:11:05.617Z,64.51
2018-12-03T14:17:15.505Z,64.51
2018-12-03T14:22:21.986Z,65.31
2018-12-03T14:27:25.328Z,65.12
2018-12-03T14:32:28.658Z,65.74
2018-12-03T14:37:31.981Z,65.24
2018-12-03T14:42:35.324Z,65.32
2018-12-03T14:47:38.656Z,64.46
2018-12-03T14:52:42.000Z,64.01
2018-12-03T14:57:45.344Z,64.49
2018-12-03T15:02:48.725Z,65.23
2018-12-03T15:07:52.074Z,65.11
2018-12-03T15:12:55.467Z,65.42
2018-12-03T15:17:58.807Z,65.76
2018-12-03T15:23:02.143Z,65.46
2018-12-03T15:28:05.503Z,65.96
2018-12-03T15:33:08.835Z,65.67
2018-12-03T15:38:12.223Z,64.74
2018-12-03T15:43:46.659Z,64.96
2018-12-03T15:48:50.087Z,64.92
2018-12-03T15:53:53.477Z,65.21
2018-12-03T15:58:56.827Z,65.14
2018-12-03T16:04:00.239Z,65.19
2018-12-03T16:09:05.340Z,64.64
2018-12-03T16:14:08.701Z,64.75
2018-12-03T16:19:12.011Z,64.90
2018-12-03T16:24:15.531Z,64.90
2018-12-03T16:29:19.521Z,65.21
2018-12-03T16:34:23.023Z,65.00
2018-12-03T16:39:26.358Z,65.14
2018-12-03T16:44:30.123Z,64.89
2018-12-03T16:49:33.461Z,64.83
2018-12-03T16:54:37.426Z,65.26
2018-12-03T16:59:40.836Z,65.15
2018-12-03T17:04:44.258Z,65.10
2018-12-03T17:09:47.628Z,64.93
2018-12-03T17:14:50.971Z,63.98
2018-12-03T17:19:54.395Z,63.21
2018-12-03T17:24:57.744Z,63.98
2018-12-03T17:30:01.130Z,64.40
2018-12-03T17:35:05.570Z,64.21
2018-12-03T17:40:10.946Z,64.81
2018-12-03T17:45:14.360Z,64.60
2018-12-03T17:50:17.730Z,64.54
2018-12-03T17:55:21.130Z,63.94
2018-12-03T18:00:24.627Z,64.23
2018-12-03T18:05:27.948Z,62.67
2018-12-03T18:10:31.579Z,62.73
2018-12-03T18:15:34.999Z,62.87
2018-12-03T18:20:38.480Z,63.14
2018-12-03T18:25:43.418Z,63.64
2018-12-03T18:30:46.718Z,62.74
2018-12-03T18:35:50.032Z,62.28
2018-12-03T18:40:53.803Z,61.98
2018-12-03T18:45:57.217Z,61.79
2018-12-03T18:51:00.820Z,62.04
2018-12-03T18:56:04.310Z,61.33
2018-12-03T19:01:07.687Z,61.27
2018-12-03T19:06:11.064Z,61.17
2018-12-03T19:11:14.502Z,61.10
2018-12-03T19:16:17.882Z,60.48
2018-12-03T19:21:21.238Z,60.79
2018-12-03T19:26:24.558Z,60.47
2018-12-03T19:31:27.860Z,60.50
2018-12-03T19:36:31.169Z,60.49
2018-12-03T19:41:34.483Z,60.31
2018-12-03T19:46:37.891Z,59.93
2018-12-03T19:51:41.196Z,60.04
2018-12-03T19:56:44.507Z,60.00
2018-12-03T20:01:47.824Z,59.77
2018-12-03T20:06:51.115Z,59.60
2018-12-03T20:11:54.497Z,59.40
2018-12-03T20:16:59.392Z,59.60
2018-12-03T20:22:04.544Z,59.14
2018-12-03T20:27:44.605Z,59.04
2018-12-03T20:32:53.526Z,59.34
2018-12-03T20:38:09.699Z,59.72
2018-12-03T20:43:17.576Z,60.58
2018-12-03T20:48:26.635Z,61.08
2018-12-03T20:53:34.815Z,61.09
2018-12-03T20:58:38.131Z,61.31
2018-12-03T21:03:41.443Z,62.07
2018-12-03T21:08:44.767Z,61.96
2018-12-03T21:13:48.088Z,62.20
2018-12-03T21:18:51.415Z,62.01
2018-12-03T21:23:54.851Z,62.29
2018-12-03T21:28:58.781Z,62.44
2018-12-03T21:34:02.186Z,62.86
2018-12-03T21:39:13.607Z,62.80
2018-12-03T21:44:16.958Z,62.61
2018-12-03T21:49:20.270Z,62.99
2018-12-03T21:54:23.602Z,63.17
2018-12-03T21:59:26.916Z,63.26
2018-12-03T22:04:30.215Z,62.41
2018-12-03T22:09:33.529Z,62.87
2018-12-03T22:14:36.909Z,62.33
2018-12-03T22:19:40.251Z,62.51
2018-12-03T22:24:43.584Z,62.22
2018-12-03T22:29:46.902Z,62.81
2018-12-03T22:34:50.311Z,62.86
2018-12-03T22:39:53.663Z,61.91
2018-12-03T22:44:57.112Z,62.34
2018-12-03T22:50:00.442Z,62.80
2018-12-03T22:55:04.465Z,62.87
2018-12-03T23:00:17.436Z,63.07
2018-12-03T23:05:20.940Z,62.88
2018-12-03T23:10:24.265Z,63.25
2018-12-03T23:15:27.735Z,63.62
2018-12-03T23:20:31.155Z,63.37
2018-12-03T23:25:34.473Z,62.70
2018-12-03T23:30:37.779Z,63.55
2018-12-03T23:35:41.075Z,63.65
2018-12-03T23:40:44.443Z,64.03
2018-12-03T23:45:47.736Z,63.99
2018-12-03T23:50:51.064Z,63.22
2018-12-03T23:55:54.373Z,64.31
